createdAt,value
2023-05-05T00:00:33.241Z,94823.00
2023-05-05T00:01:33.347Z,94825.00
2023-05-05T00:02:33.365Z,94827.00
2023-05-05T00:03:33.399Z,94821.00
2023-05-05T00:04:33.369Z,94821.00
2023-05-05T00:05:33.418Z,94819.00
2023-05-05T00:06:33.440Z,94821.00
2023-05-05T00:07:33.459Z,94821.00
2023-05-05T00:08:33.501Z,94819.00
2023-05-05T00:09:33.566Z,94819.00
2023-05-05T00:10:33.587Z,94817.00
2023-05-05T00:11:33.646Z,94819.00
2023-05-05T00:12:33.684Z,94817.00
2023-05-05T00:13:33.693Z,94821.00
2023-05-05T00:14:33.737Z,94817.00
2023-05-05T00:15:33.763Z,94817.00
2023-05-05T00:16:33.791Z,94819.00
2023-05-05T00:17:33.884Z,94821.00
2023-05-05T00:18:33.861Z,94821.00
2023-05-05T00:19:33.872Z,94821.00
2023-05-05T00:20:33.902Z,94823.00
2023-05-05T00:21:33.931Z,94823.00
2023-05-05T00:22:33.946Z,94823.00
2023-05-05T00:23:33.998Z,94823.00
2023-05-05T00:24:34.021Z,94823.00
2023-05-05T00:25:34.038Z,94825.00
2023-05-05T00:26:34.086Z,94821.00
2023-05-05T00:27:34.114Z,94825.00
2023-05-05T00:28:34.143Z,94823.00
2023-05-05T00:29:34.190Z,94825.00
2023-05-05T00:30:34.261Z,94823.00
2023-05-05T00:31:34.350Z,94823.00
2023-05-05T00:32:34.437Z,94821.00
2023-05-05T00:33:34.533Z,94825.00
2023-05-05T00:34:34.507Z,94825.00
2023-05-05T00:35:34.602Z,94825.00
2023-05-05T00:36:34.634Z,94827.00
2023-05-05T00:37:34.672Z,94827.00
2023-05-05T00:38:34.731Z,94829.00
2023-05-05T00:39:34.817Z,94829.00
2023-05-05T00:40:34.846Z,94833.00
2023-05-05T00:41:34.901Z,94835.00
2023-05-05T00:42:34.914Z,94835.00
2023-05-05T00:43:34.944Z,94833.00
2023-05-05T00:44:34.994Z,94833.00
2023-05-05T00:45:35.046Z,94835.00
2023-05-05T00:46:35.108Z,94833.00
2023-05-05T00:47:35.160Z,94833.00
2023-05-05T00:48:35.179Z,94833.00
2023-05-05T00:49:35.232Z,94831.00
2023-05-05T00:50:35.238Z,94831.00
2023-05-05T00:51:35.256Z,94829.00
2023-05-05T00:52:35.293Z,94829.00
2023-05-05T00:53:35.351Z,94825.00
2023-05-05T00:54:35.383Z,94827.00
2023-05-05T00:55:35.425Z,94827.00
2023-05-05T00:56:35.437Z,94827.00
2023-05-05T00:57:35.503Z,94825.00
2023-05-05T00:58:35.533Z,94821.00
2023-05-05T00:59:35.540Z,94821.00
2023-05-05T01:00:35.578Z,94821.00
2023-05-05T01:01:35.638Z,94819.00
2023-05-05T01:02:35.704Z,94821.00
2023-05-05T01:03:35.750Z,94821.00
2023-05-05T01:04:35.728Z,94821.00
2023-05-05T01:05:35.751Z,94821.00
2023-05-05T01:06:35.780Z,94823.00
2023-05-05T01:07:35.814Z,94821.00
2023-05-05T01:08:35.832Z,94819.00
2023-05-05T01:09:35.885Z,94821.00
2023-05-05T01:10:35.902Z,94821.00
2023-05-05T01:11:35.917Z,94819.00
2023-05-05T01:12:36.029Z,94819.00
2023-05-05T01:13:35.997Z,94819.00
2023-05-05T01:14:36.021Z,94821.00
2023-05-05T01:15:36.046Z,94819.00
2023-05-05T01:16:36.124Z,94821.00
2023-05-05T01:17:36.115Z,94821.00
2023-05-05T01:18:36.116Z,94821.00
2023-05-05T01:19:36.153Z,94823.00
2023-05-05T01:20:36.206Z,94823.00
2023-05-05T01:21:36.213Z,94823.00
2023-05-05T01:22:36.438Z,94827.00
2023-05-05T01:23:36.246Z,94825.00
2023-05-05T01:24:36.250Z,94825.00
2023-05-05T01:25:36.283Z,94825.00
2023-05-05T01:26:36.340Z,94825.00
2023-05-05T01:27:36.364Z,94829.00
2023-05-05T01:28:36.368Z,94827.00
2023-05-05T01:29:36.407Z,94825.00
2023-05-05T01:30:36.425Z,94825.00
2023-05-05T01:31:36.543Z,94825.00
2023-05-05T01:32:36.492Z,94825.00
2023-05-05T01:33:36.486Z,94829.00
2023-05-05T01:34:36.542Z,94827.00
2023-05-05T01:35:36.592Z,94827.00
2023-05-05T01:36:36.620Z,94827.00
2023-05-05T01:37:36.617Z,94825.00
2023-05-05T01:38:36.663Z,94825.00
2023-05-05T01:39:36.706Z,94825.00
2023-05-05T01:40:36.707Z,94823.00
2023-05-05T01:41:36.745Z,94823.00
2023-05-05T01:42:36.861Z,94823.00
2023-05-05T01:43:36.769Z,94821.00
2023-05-05T01:44:36.789Z,94825.00
2023-05-05T01:45:36.895Z,94821.00
2023-05-05T01:46:36.960Z,94823.00
2023-05-05T01:47:36.868Z,94825.00
2023-05-05T01:48:36.883Z,94827.00
2023-05-05T01:49:36.901Z,94827.00
2023-05-05T01:50:36.934Z,94827.00
2023-05-05T01:51:36.941Z,94827.00
2023-05-05T01:52:36.971Z,94827.00
2023-05-05T01:53:36.991Z,94827.00
2023-05-05T01:54:37.013Z,94829.00
2023-05-05T01:55:37.026Z,94827.00
2023-05-05T01:56:37.033Z,94829.00
2023-05-05T01:57:37.079Z,94829.00
2023-05-05T01:58:37.068Z,94829.00
2023-05-05T01:59:37.085Z,94831.00
2023-05-05T02:00:37.106Z,94831.00
2023-05-05T02:01:37.178Z,94833.00
2023-05-05T02:02:37.202Z,94831.00
2023-05-05T02:03:37.177Z,94839.00
2023-05-05T02:04:37.187Z,94833.00
2023-05-05T02:05:37.182Z,94833.00
2023-05-05T02:06:37.220Z,94833.00
2023-05-05T02:07:37.236Z,94837.00
2023-05-05T02:08:37.261Z,94839.00
2023-05-05T02:09:37.277Z,94839.00
2023-05-05T02:10:37.302Z,94843.00
2023-05-05T02:11:37.314Z,94843.00
2023-05-05T02:12:37.382Z,94837.00
2023-05-05T02:13:37.406Z,94845.00
2023-05-05T02:14:37.356Z,94845.00
2023-05-05T02:15:37.413Z,94845.00
2023-05-05T02:16:37.418Z,94845.00
2023-05-05T02:17:37.457Z,94847.00
2023-05-05T02:18:37.511Z,94849.00
2023-05-05T02:19:37.558Z,94851.00
2023-05-05T02:20:37.557Z,94851.00
2023-05-05T02:21:37.612Z,94851.00
2023-05-05T02:22:37.623Z,94851.00
2023-05-05T02:23:37.648Z,94853.00
2023-05-05T02:24:37.656Z,94853.00
2023-05-05T02:25:37.689Z,94854.00
2023-05-05T02:26:37.712Z,94853.00
2023-05-05T02:27:37.722Z,94856.00
2023-05-05T02:28:37.815Z,94853.00
2023-05-05T02:29:37.753Z,94853.00
2023-05-05T02:30:37.772Z,94856.00
2023-05-05T02:31:37.859Z,94854.00
2023-05-05T02:32:37.908Z,94854.00
2023-05-05T02:33:37.949Z,94858.00
2023-05-05T02:34:38.015Z,94854.00
2023-05-05T02:35:38.084Z,94853.00
2023-05-05T02:36:38.127Z,94851.00
2023-05-05T02:37:38.197Z,94853.00
2023-05-05T02:38:38.249Z,94851.00
2023-05-05T02:39:38.296Z,94853.00
2023-05-05T02:40:38.368Z,94853.00
2023-05-05T02:41:38.416Z,94851.00
2023-05-05T02:42:38.418Z,94853.00
2023-05-05T02:43:38.417Z,94853.00
2023-05-05T02:44:38.558Z,94854.00
2023-05-05T02:45:38.448Z,94854.00
2023-05-05T02:46:38.556Z,94858.00
2023-05-05T02:47:38.570Z,94858.00
2023-05-05T02:48:38.547Z,94856.00
2023-05-05T02:49:38.645Z,94856.00
2023-05-05T02:50:38.666Z,94856.00
2023-05-05T02:51:38.672Z,94856.00
2023-05-05T02:52:38.720Z,94854.00
2023-05-05T02:53:38.697Z,94854.00
2023-05-05T02:54:38.717Z,94853.00
2023-05-05T02:55:38.735Z,94854.00
2023-05-05T02:56:38.754Z,94854.00
2023-05-05T02:57:38.831Z,94856.00
2023-05-05T02:58:38.804Z,94856.00
2023-05-05T02:59:38.809Z,94854.00
2023-05-05T03:00:38.820Z,94856.00
2023-05-05T03:01:38.999Z,94853.00
2023-05-05T03:02:38.979Z,94853.00
2023-05-05T03:03:39.103Z,94853.00
2023-05-05T03:04:38.865Z,94853.00
2023-05-05T03:05:38.883Z,94853.00
2023-05-05T03:06:38.901Z,94853.00
2023-05-05T03:07:38.939Z,94851.00
2023-05-05T03:08:38.932Z,94851.00
2023-05-05T03:09:38.947Z,94849.00
2023-05-05T03:10:38.953Z,94849.00
2023-05-05T03:11:38.982Z,94854.00
2023-05-05T03:12:39.033Z,94853.00
2023-05-05T03:13:38.992Z,94853.00
2023-05-05T03:14:39.020Z,94853.00
2023-05-05T03:15:39.006Z,94853.00
2023-05-05T03:16:39.094Z,94858.00
2023-05-05T03:17:39.087Z,94856.00
2023-05-05T03:18:39.069Z,94860.00
2023-05-05T03:19:39.074Z,94860.00
2023-05-05T03:20:39.078Z,94860.00
2023-05-05T03:21:39.090Z,94862.00
2023-05-05T03:22:39.119Z,94864.00
2023-05-05T03:23:39.140Z,94864.00
2023-05-05T03:24:39.173Z,94864.00
2023-05-05T03:25:39.167Z,94862.00
2023-05-05T03:26:39.224Z,94860.00
2023-05-05T03:27:39.276Z,94860.00
2023-05-05T03:28:39.320Z,94860.00
2023-05-05T03:29:41.028Z,94858.00
2023-05-05T03:30:39.439Z,94860.00
2023-05-05T03:31:39.580Z,94860.00
2023-05-05T03:32:39.620Z,94860.00
2023-05-05T03:33:39.618Z,94860.00
2023-05-05T03:34:39.659Z,94860.00
2023-05-05T03:35:39.732Z,94860.00
2023-05-05T03:36:39.779Z,94862.00
2023-05-05T03:37:39.876Z,94860.00
2023-05-05T03:38:39.889Z,94862.00
2023-05-05T03:39:39.898Z,94860.00
2023-05-05T03:40:44.186Z,94860.00
2023-05-05T03:41:39.926Z,94862.00
2023-05-05T03:42:39.910Z,94862.00
2023-05-05T03:43:39.896Z,94862.00
2023-05-05T03:44:39.884Z,94862.00
2023-05-05T03:45:39.903Z,94862.00
2023-05-05T03:46:39.870Z,94862.00
2023-05-05T03:47:39.902Z,94862.00
2023-05-05T03:48:39.867Z,94864.00
2023-05-05T03:49:39.868Z,94862.00
2023-05-05T03:50:39.845Z,94864.00
2023-05-05T03:51:39.837Z,94864.00
2023-05-05T03:52:39.839Z,94866.00
2023-05-05T03:53:39.806Z,94866.00
2023-05-05T03:54:39.818Z,94868.00
2023-05-05T03:55:39.806Z,94862.00
2023-05-05T03:56:39.786Z,94866.00
2023-05-05T03:57:39.813Z,94860.00
2023-05-05T03:58:39.806Z,94864.00
2023-05-05T03:59:39.809Z,94858.00
2023-05-05T04:00:39.827Z,94858.00
2023-05-05T04:01:39.895Z,94849.00
2023-05-05T04:02:39.890Z,94849.00
2023-05-05T04:03:39.942Z,94845.00
2023-05-05T04:04:39.919Z,94845.00
2023-05-05T04:05:39.994Z,94845.00
2023-05-05T04:06:40.057Z,94845.00
2023-05-05T04:07:40.094Z,94847.00
2023-05-05T04:08:40.133Z,94847.00
2023-05-05T04:09:40.154Z,94851.00
2023-05-05T04:10:40.153Z,94851.00
2023-05-05T04:11:40.221Z,94851.00
2023-05-05T04:12:40.285Z,94849.00
2023-05-05T04:13:40.277Z,94845.00
2023-05-05T04:14:40.284Z,94845.00
2023-05-05T04:15:40.291Z,94849.00
2023-05-05T04:16:40.309Z,94845.00
2023-05-05T04:17:40.347Z,94849.00
2023-05-05T04:18:40.340Z,94849.00
2023-05-05T04:19:40.362Z,94851.00
2023-05-05T04:20:40.409Z,94849.00
2023-05-05T04:21:40.424Z,94849.00
2023-05-05T04:22:40.459Z,94851.00
2023-05-05T04:23:40.520Z,94853.00
2023-05-05T04:24:40.565Z,94853.00
2023-05-05T04:25:40.634Z,94854.00
2023-05-05T04:26:40.701Z,94853.00
2023-05-05T04:27:40.717Z,94853.00
2023-05-05T04:28:40.754Z,94856.00
2023-05-05T04:29:40.751Z,94854.00
2023-05-05T04:30:40.769Z,94856.00
2023-05-05T04:31:40.864Z,94856.00
2023-05-05T04:32:40.866Z,94856.00
2023-05-05T04:33:40.837Z,94856.00
2023-05-05T04:34:40.816Z,94856.00
2023-05-05T04:35:40.838Z,94856.00
2023-05-05T04:36:40.864Z,94854.00
2023-05-05T04:37:40.923Z,94854.00
2023-05-05T04:38:41.012Z,94854.00
2023-05-05T04:39:41.044Z,94856.00
2023-05-05T04:40:41.110Z,94860.00
2023-05-05T04:41:41.143Z,94862.00
2023-05-05T04:42:41.164Z,94864.00
2023-05-05T04:43:41.135Z,94866.00
2023-05-05T04:44:41.134Z,94864.00
2023-05-05T04:45:41.156Z,94864.00
2023-05-05T04:46:41.210Z,94868.00
2023-05-05T04:47:41.189Z,94864.00
2023-05-05T04:48:41.151Z,94868.00
2023-05-05T04:49:41.159Z,94868.00
2023-05-05T04:50:41.164Z,94864.00
2023-05-05T04:51:41.182Z,94866.00
2023-05-05T04:52:41.235Z,94870.00
2023-05-05T04:53:41.311Z,94860.00
2023-05-05T04:54:41.361Z,94862.00
2023-05-05T04:55:41.397Z,94866.00
2023-05-05T04:56:41.416Z,94868.00
2023-05-05T04:57:41.423Z,94868.00
2023-05-05T04:58:41.437Z,94874.00
2023-05-05T04:59:41.444Z,94874.00
2023-05-05T05:00:41.466Z,94874.00
2023-05-05T05:01:41.528Z,94876.00
2023-05-05T05:02:41.578Z,94882.00
2023-05-05T05:03:41.720Z,94884.00
2023-05-05T05:04:41.629Z,94886.00
2023-05-05T05:05:41.682Z,94880.00
2023-05-05T05:06:41.734Z,94882.00
2023-05-05T05:07:41.758Z,94880.00
2023-05-05T05:08:41.768Z,94880.00
2023-05-05T05:09:41.785Z,94878.00
2023-05-05T05:10:41.815Z,94882.00
2023-05-05T05:11:41.822Z,94880.00
2023-05-05T05:12:41.843Z,94882.00
2023-05-05T05:13:41.821Z,94884.00
2023-05-05T05:14:41.884Z,94886.00
2023-05-05T05:15:41.877Z,94884.00
2023-05-05T05:16:41.938Z,94884.00
2023-05-05T05:17:41.942Z,94892.00
2023-05-05T05:18:41.958Z,94902.00
2023-05-05T05:19:41.997Z,94904.00
2023-05-05T05:20:42.028Z,94904.00
2023-05-05T05:21:42.067Z,94902.00
2023-05-05T05:22:42.085Z,94900.00
2023-05-05T05:23:42.132Z,94902.00
2023-05-05T05:24:42.182Z,94904.00
2023-05-05T05:25:42.186Z,94906.00
2023-05-05T05:26:42.204Z,94904.00
2023-05-05T05:27:42.224Z,94904.00
2023-05-05T05:28:42.249Z,94892.00
2023-05-05T05:29:42.324Z,94900.00
2023-05-05T05:30:42.362Z,94892.00
2023-05-05T05:31:42.495Z,94892.00
2023-05-05T05:32:42.467Z,94900.00
2023-05-05T05:33:42.589Z,94892.00
2023-05-05T05:34:42.577Z,94892.00
2023-05-05T05:35:42.637Z,94890.00
2023-05-05T05:36:42.677Z,94892.00
2023-05-05T05:37:42.715Z,94892.00
2023-05-05T05:38:42.736Z,94890.00
2023-05-05T05:39:43.756Z,94886.00
2023-05-05T05:40:42.736Z,94890.00
2023-05-05T05:41:42.799Z,94892.00
2023-05-05T05:42:42.841Z,94888.00
2023-05-05T05:43:43.061Z,94892.00
2023-05-05T05:44:42.888Z,94892.00
2023-05-05T05:45:43.046Z,94890.00
2023-05-05T05:46:43.051Z,94892.00
2023-05-05T05:47:42.983Z,94892.00
2023-05-05T05:48:43.012Z,94892.00
2023-05-05T05:49:43.034Z,94906.00
2023-05-05T05:50:43.074Z,94907.00
2023-05-05T05:51:43.124Z,94907.00
2023-05-05T05:52:43.161Z,94909.00
2023-05-05T05:53:43.208Z,94913.00
2023-05-05T05:54:43.224Z,94911.00
2023-05-05T05:55:43.256Z,94909.00
2023-05-05T05:56:43.292Z,94907.00
2023-05-05T05:57:43.299Z,94909.00
2023-05-05T05:58:43.322Z,94913.00
2023-05-05T05:59:43.341Z,94911.00
2023-05-05T06:00:43.357Z,94913.00
2023-05-05T06:01:43.357Z,94913.00
2023-05-05T06:02:43.459Z,94913.00
2023-05-05T06:03:43.672Z,94913.00
2023-05-05T06:04:43.500Z,94913.00
2023-05-05T06:05:43.535Z,94911.00
2023-05-05T06:06:43.589Z,94911.00
2023-05-05T06:07:43.569Z,94909.00
2023-05-05T06:08:43.578Z,94907.00
2023-05-05T06:09:43.654Z,94911.00
2023-05-05T06:10:43.685Z,94907.00
2023-05-05T06:11:43.698Z,94911.00
2023-05-05T06:12:43.736Z,94907.00
2023-05-05T06:13:43.733Z,94911.00
2023-05-05T06:14:43.742Z,94909.00
2023-05-05T06:15:43.782Z,94911.00
2023-05-05T06:16:43.746Z,94907.00
2023-05-05T06:17:43.795Z,94906.00
2023-05-05T06:18:44.089Z,94907.00
2023-05-05T06:19:43.759Z,94906.00
2023-05-05T06:20:43.746Z,94904.00
2023-05-05T06:21:43.769Z,94906.00
2023-05-05T06:22:43.758Z,94900.00
2023-05-05T06:23:43.799Z,94902.00
2023-05-05T06:24:43.795Z,94900.00
2023-05-05T06:25:43.813Z,94892.00
2023-05-05T06:26:43.831Z,94882.00
2023-05-05T06:27:43.824Z,94882.00
2023-05-05T06:28:43.845Z,94882.00
2023-05-05T06:29:43.847Z,94882.00
2023-05-05T06:30:43.861Z,94878.00
2023-05-05T06:31:44.121Z,94874.00
2023-05-05T06:32:43.946Z,94878.00
2023-05-05T06:33:43.939Z,94878.00
2023-05-05T06:34:43.971Z,94878.00
2023-05-05T06:35:43.992Z,94874.00
2023-05-05T06:36:44.063Z,94878.00
2023-05-05T06:37:44.069Z,94880.00
2023-05-05T06:38:44.111Z,94882.00
2023-05-05T06:39:44.155Z,94878.00
2023-05-05T06:40:44.183Z,94874.00
2023-05-05T06:41:44.233Z,94872.00
2023-05-05T06:42:44.283Z,94876.00
2023-05-05T06:43:44.600Z,94874.00
2023-05-05T06:44:44.372Z,94874.00
2023-05-05T06:45:44.431Z,94872.00
2023-05-05T06:46:44.621Z,94872.00
2023-05-05T06:47:44.612Z,94874.00
2023-05-05T06:48:44.575Z,94868.00
2023-05-05T06:49:44.642Z,94866.00
2023-05-05T06:50:44.683Z,94864.00
2023-05-05T06:51:44.736Z,94862.00
2023-05-05T06:52:44.771Z,94862.00
2023-05-05T06:53:45.105Z,94864.00
2023-05-05T06:54:44.903Z,94862.00
2023-05-05T06:55:44.900Z,94862.00
2023-05-05T06:56:44.935Z,94858.00
2023-05-05T06:57:44.985Z,94860.00
2023-05-05T06:58:45.025Z,94862.00
2023-05-05T06:59:45.073Z,94862.00
2023-05-05T07:00:45.184Z,94862.00
2023-05-05T07:01:45.165Z,94854.00
2023-05-05T07:02:45.260Z,94854.00
2023-05-05T07:03:45.326Z,94856.00
2023-05-05T07:04:45.283Z,94854.00
2023-05-05T07:05:45.271Z,94854.00
2023-05-05T07:06:45.285Z,94854.00
2023-05-05T07:07:45.281Z,94858.00
2023-05-05T07:08:45.645Z,94854.00
2023-05-05T07:09:45.288Z,94860.00
2023-05-05T07:10:45.334Z,94856.00
2023-05-05T07:11:45.595Z,94856.00
2023-05-05T07:12:45.420Z,94858.00
2023-05-05T07:13:45.406Z,94856.00
2023-05-05T07:14:45.438Z,94856.00
2023-05-05T07:15:45.461Z,94856.00
2023-05-05T07:16:45.564Z,94856.00
2023-05-05T07:17:45.536Z,94851.00
2023-05-05T07:18:45.531Z,94853.00
2023-05-05T07:19:45.599Z,94851.00
2023-05-05T07:20:45.550Z,94847.00
2023-05-05T07:21:45.559Z,94847.00
2023-05-05T07:22:45.842Z,94847.00
2023-05-05T07:23:45.573Z,94841.00
2023-05-05T07:24:45.591Z,94843.00
2023-05-05T07:25:45.626Z,94841.00
2023-05-05T07:26:45.740Z,94841.00
2023-05-05T07:27:45.722Z,94839.00
2023-05-05T07:28:46.102Z,94839.00
2023-05-05T07:29:45.787Z,94835.00
2023-05-05T07:30:45.972Z,94835.00
2023-05-05T07:31:46.178Z,94833.00
2023-05-05T07:32:45.962Z,94835.00
2023-05-05T07:33:45.866Z,94831.00
2023-05-05T07:34:45.897Z,94835.00
2023-05-05T07:35:45.907Z,94829.00
2023-05-05T07:36:46.129Z,94829.00
2023-05-05T07:37:45.918Z,94829.00
2023-05-05T07:38:45.922Z,94829.00
2023-05-05T07:39:45.918Z,94827.00
2023-05-05T07:40:45.912Z,94825.00
2023-05-05T07:41:45.950Z,94823.00
2023-05-05T07:42:46.066Z,94823.00
2023-05-05T07:43:46.094Z,94821.00
2023-05-05T07:44:46.104Z,94823.00
2023-05-05T07:45:46.127Z,94821.00
2023-05-05T07:46:46.129Z,94819.00
2023-05-05T07:47:46.215Z,94817.00
2023-05-05T07:48:46.606Z,94813.00
2023-05-05T07:49:46.180Z,94815.00
2023-05-05T07:50:46.283Z,94811.00
2023-05-05T07:51:46.302Z,94811.00
2023-05-05T07:52:49.950Z,94809.00
2023-05-05T07:53:47.341Z,94811.00
2023-05-05T07:54:46.338Z,94807.00
2023-05-05T07:55:46.349Z,94804.00
2023-05-05T07:56:46.345Z,94807.00
2023-05-05T07:57:46.332Z,94806.00
2023-05-05T07:58:46.378Z,94806.00
2023-05-05T07:59:46.331Z,94802.00
2023-05-05T08:00:46.329Z,94804.00
2023-05-05T08:01:46.628Z,94802.00
2023-05-05T08:02:46.372Z,94800.00
2023-05-05T08:03:46.375Z,94800.00
2023-05-05T08:04:46.309Z,94800.00
2023-05-05T08:05:46.282Z,94798.00
2023-05-05T08:06:46.279Z,94798.00
2023-05-05T08:07:46.257Z,94798.00
2023-05-05T08:08:46.236Z,94796.00
2023-05-05T08:09:46.638Z,94796.00
2023-05-05T08:10:46.248Z,94796.00
2023-05-05T08:11:46.231Z,94792.00
2023-05-05T08:12:46.240Z,94790.00
2023-05-05T08:13:46.308Z,94790.00
2023-05-05T08:14:46.431Z,94788.00
2023-05-05T08:15:46.403Z,94786.00
2023-05-05T08:16:46.358Z,94786.00
2023-05-05T08:17:46.639Z,94780.00
2023-05-05T08:18:46.400Z,94782.00
2023-05-05T08:19:46.651Z,94778.00
2023-05-05T08:20:46.370Z,94774.00
2023-05-05T08:21:46.371Z,94772.00
2023-05-05T08:22:46.413Z,94768.00
2023-05-05T08:23:46.661Z,94770.00
2023-05-05T08:24:46.426Z,94768.00
2023-05-05T08:25:46.453Z,94762.00
2023-05-05T08:26:46.498Z,94766.00
2023-05-05T08:27:46.563Z,94766.00
2023-05-05T08:28:46.611Z,94764.00
2023-05-05T08:29:46.624Z,94764.00
2023-05-05T08:30:46.762Z,94759.00
2023-05-05T08:31:46.801Z,94759.00
2023-05-05T08:32:46.812Z,94759.00
2023-05-05T08:33:46.849Z,94755.00
2023-05-05T08:34:46.800Z,94755.00
2023-05-05T08:35:46.803Z,94755.00
2023-05-05T08:36:46.844Z,94751.00
2023-05-05T08:37:46.828Z,94747.00
2023-05-05T08:38:46.831Z,94751.00
2023-05-05T08:39:46.894Z,94751.00
2023-05-05T08:40:46.915Z,94747.00
2023-05-05T08:41:46.975Z,94747.00
2023-05-05T08:42:46.997Z,94743.00
2023-05-05T08:43:47.040Z,94743.00
2023-05-05T08:44:47.092Z,94739.00
2023-05-05T08:45:47.142Z,94739.00
2023-05-05T08:46:47.341Z,94741.00
2023-05-05T08:47:47.661Z,94737.00
2023-05-05T08:48:47.212Z,94737.00
2023-05-05T08:49:47.232Z,94737.00
2023-05-05T08:50:47.279Z,94735.00
2023-05-05T08:51:47.492Z,94735.00
2023-05-05T08:52:48.644Z,94731.00
2023-05-05T08:53:47.451Z,94733.00
2023-05-05T08:54:47.650Z,94735.00
2023-05-05T08:55:47.548Z,94733.00
2023-05-05T08:56:47.566Z,94731.00
2023-05-05T08:57:47.632Z,94727.00
2023-05-05T08:58:47.739Z,94733.00
2023-05-05T08:59:47.665Z,94729.00
2023-05-05T09:00:47.729Z,94729.00
2023-05-05T09:01:47.738Z,94725.00
2023-05-05T09:02:48.040Z,94725.00
2023-05-05T09:03:47.852Z,94725.00
2023-05-05T09:04:48.151Z,94723.00
2023-05-05T09:05:47.932Z,94723.00
2023-05-05T09:06:47.954Z,94723.00
2023-05-05T09:07:48.013Z,94719.00
2023-05-05T09:08:48.104Z,94719.00
2023-05-05T09:09:48.133Z,94715.00
2023-05-05T09:10:48.227Z,94719.00
2023-05-05T09:11:48.244Z,94719.00
2023-05-05T09:12:48.311Z,94719.00
2023-05-05T09:13:48.371Z,94717.00
2023-05-05T09:14:48.357Z,94712.00
2023-05-05T09:15:48.320Z,94713.00
2023-05-05T09:16:48.467Z,94710.00
2023-05-05T09:17:48.617Z,94712.00
2023-05-05T09:18:48.452Z,94710.00
2023-05-05T09:19:48.452Z,94708.00
2023-05-05T09:20:48.481Z,94706.00
2023-05-05T09:21:48.536Z,94710.00
2023-05-05T09:22:48.537Z,94708.00
2023-05-05T09:23:48.608Z,94706.00
2023-05-05T09:24:48.638Z,94704.00
2023-05-05T09:25:48.742Z,94704.00
2023-05-05T09:26:48.773Z,94704.00
2023-05-05T09:27:48.820Z,94700.00
2023-05-05T09:28:49.029Z,94698.00
2023-05-05T09:29:48.878Z,94698.00
2023-05-05T09:30:48.975Z,94696.00
2023-05-05T09:31:48.959Z,94694.00
2023-05-05T09:32:49.220Z,94690.00
2023-05-05T09:33:49.053Z,94690.00
2023-05-05T09:34:49.200Z,94684.00
2023-05-05T09:35:49.092Z,94682.00
2023-05-05T09:36:49.171Z,94680.00
2023-05-05T09:37:49.153Z,94678.00
2023-05-05T09:38:49.163Z,94678.00
2023-05-05T09:39:49.244Z,94672.00
2023-05-05T09:40:49.288Z,94672.00
2023-05-05T09:41:49.284Z,94668.00
2023-05-05T09:42:49.311Z,94668.00
2023-05-05T09:43:49.325Z,94666.00
2023-05-05T09:44:49.393Z,94664.00
2023-05-05T09:45:49.418Z,94664.00
2023-05-05T09:46:49.493Z,94666.00
2023-05-05T09:47:49.569Z,94664.00
2023-05-05T09:48:49.554Z,94664.00
2023-05-05T09:49:49.535Z,94662.00
2023-05-05T09:50:49.759Z,94662.00
2023-05-05T09:51:49.625Z,94657.00
2023-05-05T09:52:49.662Z,94655.00
2023-05-05T09:53:49.764Z,94653.00
2023-05-05T09:54:49.762Z,94651.00
2023-05-05T09:55:49.783Z,94653.00
2023-05-05T09:56:49.802Z,94649.00
2023-05-05T09:57:49.794Z,94649.00
2023-05-05T09:58:49.837Z,94649.00
2023-05-05T09:59:49.857Z,94647.00
2023-05-05T10:00:49.913Z,94645.00
2023-05-05T10:01:49.927Z,94645.00
2023-05-05T10:02:50.003Z,94647.00
2023-05-05T10:03:49.983Z,94635.00
2023-05-05T10:04:50.196Z,94645.00
2023-05-05T10:05:50.099Z,94645.00
2023-05-05T10:06:50.228Z,94643.00
2023-05-05T10:07:50.201Z,94635.00
2023-05-05T10:08:50.244Z,94633.00
2023-05-05T10:09:50.303Z,94631.00
2023-05-05T10:10:50.369Z,94629.00
2023-05-05T10:11:50.443Z,94631.00
2023-05-05T10:12:50.563Z,94635.00
2023-05-05T10:13:50.521Z,94627.00
2023-05-05T10:14:50.557Z,94629.00
2023-05-05T10:15:50.604Z,94629.00
2023-05-05T10:16:50.636Z,94625.00
2023-05-05T10:18:02.193Z,94625.00
2023-05-05T10:18:51.601Z,94627.00
2023-05-05T10:19:50.602Z,94623.00
2023-05-05T10:20:50.895Z,94623.00
2023-05-05T10:21:50.702Z,94623.00
2023-05-05T10:22:50.684Z,94621.00
2023-05-05T10:23:50.593Z,94623.00
2023-05-05T10:24:50.547Z,94619.00
2023-05-05T10:25:50.553Z,94619.00
2023-05-05T10:26:50.584Z,94619.00
2023-05-05T10:27:50.540Z,94617.00
2023-05-05T10:28:50.554Z,94615.00
2023-05-05T10:29:50.532Z,94615.00
2023-05-05T10:30:50.530Z,94613.00
2023-05-05T10:31:50.550Z,94606.00
2023-05-05T10:33:00.861Z,94608.00
2023-05-05T10:33:51.593Z,94602.00
2023-05-05T10:34:50.527Z,94600.00
2023-05-05T10:35:50.494Z,94604.00
2023-05-05T10:36:50.511Z,94598.00
2023-05-05T10:37:50.502Z,94598.00
2023-05-05T10:38:50.548Z,94596.00
2023-05-05T10:39:50.477Z,94594.00
2023-05-05T10:40:50.458Z,94590.00
2023-05-05T10:41:50.472Z,94588.00
2023-05-05T10:42:50.461Z,94590.00
2023-05-05T10:43:50.458Z,94586.00
2023-05-05T10:44:50.448Z,94584.00
2023-05-05T10:45:50.523Z,94584.00
2023-05-05T10:46:50.440Z,94584.00
2023-05-05T10:47:50.560Z,94582.00
2023-05-05T10:48:50.711Z,94578.00
2023-05-05T10:49:50.611Z,94576.00
2023-05-05T10:50:50.680Z,94572.00
2023-05-05T10:51:50.656Z,94572.00
2023-05-05T10:52:50.725Z,94570.00
2023-05-05T10:53:50.773Z,94566.00
2023-05-05T10:54:50.908Z,94565.00
2023-05-05T10:55:50.834Z,94563.00
2023-05-05T10:56:50.881Z,94561.00
2023-05-05T10:57:50.907Z,94559.00
2023-05-05T10:58:59.787Z,94557.00
2023-05-05T10:59:52.214Z,94557.00
2023-05-05T11:00:50.958Z,94549.00
2023-05-05T11:01:50.991Z,94551.00
2023-05-05T11:02:50.942Z,94545.00
2023-05-05T11:03:50.961Z,94545.00
2023-05-05T11:04:50.934Z,94551.00
2023-05-05T11:05:50.896Z,94549.00
2023-05-05T11:06:50.925Z,94547.00
2023-05-05T11:07:50.880Z,94545.00
2023-05-05T11:08:50.893Z,94541.00
2023-05-05T11:09:51.209Z,94539.00
2023-05-05T11:10:51.084Z,94539.00
2023-05-05T11:11:50.865Z,94535.00
2023-05-05T11:12:50.906Z,94529.00
2023-05-05T11:13:50.863Z,94529.00
2023-05-05T11:14:51.190Z,94525.00
2023-05-05T11:15:50.861Z,94521.00
2023-05-05T11:16:50.932Z,94525.00
2023-05-05T11:17:50.908Z,94517.00
2023-05-05T11:18:50.887Z,94517.00
2023-05-05T11:19:51.212Z,94513.00
2023-05-05T11:20:50.956Z,94519.00
2023-05-05T11:21:51.132Z,94519.00
2023-05-05T11:22:51.024Z,94517.00
2023-05-05T11:23:51.121Z,94521.00
2023-05-05T11:24:51.168Z,94515.00
2023-05-05T11:25:51.212Z,94510.00
2023-05-05T11:26:51.373Z,94511.00
2023-05-05T11:27:51.305Z,94506.00
2023-05-05T11:28:51.334Z,94502.00
2023-05-05T11:29:52.137Z,94502.00
2023-05-05T11:30:51.488Z,94500.00
2023-05-05T11:31:51.473Z,94500.00
2023-05-05T11:32:51.545Z,94496.00
2023-05-05T11:33:51.557Z,94496.00
2023-05-05T11:34:51.562Z,94494.00
2023-05-05T11:35:51.545Z,94492.00
2023-05-05T11:36:51.528Z,94492.00
2023-05-05T11:37:51.521Z,94488.00
2023-05-05T11:38:51.524Z,94486.00
2023-05-05T11:39:51.509Z,94482.00
2023-05-05T11:40:51.532Z,94480.00
2023-05-05T11:41:51.548Z,94482.00
2023-05-05T11:42:51.546Z,94478.00
2023-05-05T11:43:51.576Z,94478.00
2023-05-05T11:44:51.628Z,94478.00